HPL37 LPSM-LPGO
Flight info
| Callsign | HPL37 |
|---|---|
| Flight time | 0h -5m |
| Altitude | 2000 |
| Route | DCT |
| Aircraft | AS50/L-SFGHIRWXY/S |
Departure
| Time | 2026-05-05 16:32 |
|---|---|
| Airport | Santa Maria Hospital Helipad (LPSM) |
Arrival
| Time | 2026-05-05 16:27 |
|---|---|
| Airport | Almada Hospital Heliport (LPGO) |
| Time | Latitude | Longitude | Altitude | Speed | Heading |
|---|---|---|---|---|---|
| 2026-05-05 16:26 | 38.74936 | -9.16061 | 342 ft | 0 kts | 0° |
| 2026-05-05 16:31 | 38.74933 | -9.16051 | 355 ft | 3 kts | 4° |
| 2026-05-05 16:31 | 38.74957 | -9.15943 | 496 ft | 63 kts | 121° |
| 2026-05-05 16:32 | 38.74526 | -9.15647 | 718 ft | 83 kts | 144° |
| 2026-05-05 16:32 | 38.73994 | -9.15173 | 838 ft | 104 kts | 157° |
| 2026-05-05 16:32 | 38.73281 | -9.14692 | 991 ft | 124 kts | 156° |
| 2026-05-05 16:32 | 38.72534 | -9.14091 | 1209 ft | 129 kts | 146° |
| 2026-05-05 16:33 | 38.71798 | -9.13402 | 1428 ft | 131 kts | 147° |
| 2026-05-05 16:33 | 38.70958 | -9.12793 | 1453 ft | 144 kts | 154° |
| 2026-05-05 16:33 | 38.70067 | -9.12203 | 1426 ft | 150 kts | 155° |
| 2026-05-05 16:33 | 38.69152 | -9.11573 | 1512 ft | 143 kts | 150° |
| 2026-05-05 16:34 | 38.68438 | -9.10946 | 1752 ft | 123 kts | 131° |
| 2026-05-05 16:34 | 38.68106 | -9.10515 | 1949 ft | 107 kts | 137° |
| 2026-05-05 16:34 | 38.67449 | -9.09865 | 1918 ft | 131 kts | 142° |
| 2026-05-05 16:35 | 38.66660 | -9.09160 | 1882 ft | 142 kts | 147° |
| 2026-05-05 16:35 | 38.65805 | -9.08500 | 1848 ft | 147 kts | 150° |
| 2026-05-05 16:35 | 38.64932 | -9.07844 | 1929 ft | 141 kts | 152° |
| 2026-05-05 16:35 | 38.64123 | -9.07299 | 2146 ft | 128 kts | 148° |
| 2026-05-05 16:36 | 38.63328 | -9.06614 | 1865 ft | 156 kts | 150° |
| 2026-05-05 16:36 | 38.62393 | -9.05798 | 1577 ft | 167 kts | 146° |
| 2026-05-05 16:36 | 38.61472 | -9.05026 | 1708 ft | 151 kts | 152° |
| 2026-05-05 16:36 | 38.60596 | -9.04279 | 1760 ft | 152 kts | 144° |
| 2026-05-05 16:37 | 38.59762 | -9.03442 | 1740 ft | 154 kts | 141° |
| 2026-05-05 16:37 | 38.58975 | -9.02515 | 1879 ft | 150 kts | 132° |
| 2026-05-05 16:37 | 38.58400 | -9.01428 | 1872 ft | 154 kts | 105° |
| 2026-05-05 16:37 | 38.58282 | -9.00071 | 1711 ft | 156 kts | 82° |
| 2026-05-05 16:38 | 38.58356 | -8.98739 | 1634 ft | 147 kts | 82° |
| 2026-05-05 16:38 | 38.58171 | -8.97395 | 1235 ft | 157 kts | 88° |
| 2026-05-05 16:38 | 38.58034 | -8.96078 | 1151 ft | 144 kts | 104° |
| 2026-05-05 16:38 | 38.57491 | -8.95074 | 1020 ft | 130 kts | 137° |
| 2026-05-05 16:39 | 38.56801 | -8.94515 | 992 ft | 103 kts | 192° |
| 2026-05-05 16:39 | 38.56208 | -8.94884 | 687 ft | 71 kts | 261° |
| 2026-05-05 16:39 | 38.56342 | -8.94781 | 483 ft | 22 kts | 329° |
| 2026-05-05 16:39 | 38.56282 | -8.94859 | 383 ft | 15 kts | 98° |
| 2026-05-05 16:40 | 38.56209 | -8.94845 | 493 ft | 8 kts | 303° |
| 2026-05-05 16:40 | 38.56308 | -8.94853 | 443 ft | 9 kts | 358° |
| 2026-05-05 16:40 | 38.56326 | -8.94855 | 340 ft | 0 kts | 340° |
| 2026-05-05 16:50 | 38.56313 | -8.94876 | 409 ft | 8 kts | 298° |
| 2026-05-05 16:50 | 38.56339 | -8.95077 | 651 ft | 27 kts | 296° |
| 2026-05-05 16:50 | 38.56328 | -8.95340 | 1032 ft | 30 kts | 279° |
| 2026-05-05 16:50 | 38.56379 | -8.95646 | 1375 ft | 54 kts | 300° |
| 2026-05-05 16:51 | 38.56575 | -8.96209 | 1693 ft | 82 kts | 294° |
| 2026-05-05 16:51 | 38.56857 | -8.96971 | 1736 ft | 107 kts | 301° |
| 2026-05-05 16:51 | 38.57342 | -8.97786 | 1491 ft | 116 kts | 310° |
| 2026-05-05 16:51 | 38.57759 | -8.98630 | 1457 ft | 116 kts | 297° |
| 2026-05-05 16:52 | 38.58099 | -8.99558 | 1412 ft | 115 kts | 301° |
| 2026-05-05 16:52 | 38.58513 | -9.00419 | 1405 ft | 111 kts | 303° |
| 2026-05-05 16:52 | 38.58892 | -9.01243 | 1506 ft | 103 kts | 301° |
| 2026-05-05 16:52 | 38.59284 | -9.02087 | 1328 ft | 115 kts | 301° |
| 2026-05-05 16:53 | 38.59688 | -9.02944 | 1392 ft | 108 kts | 301° |
| 2026-05-05 16:53 | 38.60003 | -9.03804 | 1351 ft | 108 kts | 293° |
| 2026-05-05 16:53 | 38.60251 | -9.04713 | 1370 ft | 108 kts | 291° |
| 2026-05-05 16:53 | 38.60488 | -9.05624 | 1341 ft | 110 kts | 292° |
| 2026-05-05 16:54 | 38.60845 | -9.06491 | 1347 ft | 110 kts | 303° |
| 2026-05-05 16:54 | 38.61278 | -9.07280 | 1414 ft | 107 kts | 307° |
| 2026-05-05 16:54 | 38.61729 | -9.08056 | 1358 ft | 109 kts | 307° |
| 2026-05-05 16:54 | 38.62174 | -9.08813 | 1424 ft | 103 kts | 308° |
| 2026-05-05 16:55 | 38.62597 | -9.09539 | 1456 ft | 102 kts | 307° |
| 2026-05-05 16:55 | 38.63015 | -9.10267 | 1489 ft | 100 kts | 307° |
| 2026-05-05 16:55 | 38.63419 | -9.10979 | 1527 ft | 99 kts | 307° |
| 2026-05-05 16:55 | 38.63820 | -9.11704 | 1562 ft | 99 kts | 306° |
| 2026-05-05 16:56 | 38.64206 | -9.12419 | 1593 ft | 99 kts | 306° |
| 2026-05-05 16:56 | 38.64598 | -9.13215 | 1427 ft | 113 kts | 303° |
| 2026-05-05 16:56 | 38.64984 | -9.14097 | 1319 ft | 116 kts | 302° |
| 2026-05-05 16:56 | 38.65423 | -9.14976 | 1188 ft | 119 kts | 308° |
| 2026-05-05 16:57 | 38.65970 | -9.15783 | 1062 ft | 120 kts | 315° |
| 2026-05-05 16:57 | 38.66572 | -9.16493 | 938 ft | 115 kts | 317° |
| 2026-05-05 16:57 | 38.67093 | -9.17106 | 893 ft | 88 kts | 313° |
| 2026-05-05 16:57 | 38.67354 | -9.17687 | 840 ft | 67 kts | 296° |
| 2026-05-05 16:58 | 38.67578 | -9.18007 | 859 ft | 37 kts | 354° |
| 2026-05-05 16:58 | 38.67651 | -9.17734 | 682 ft | 39 kts | 169° |
| 2026-05-05 16:58 | 38.67453 | -9.17629 | 475 ft | 23 kts | 26° |
| 2026-05-05 16:58 | 38.67380 | -9.17599 | 547 ft | 6 kts | 331° |
| 2026-05-05 16:59 | 38.67486 | -9.17725 | 504 ft | 25 kts | 323° |
| 2026-05-05 16:59 | 38.67534 | -9.17755 | 458 ft | 15 kts | 150° |
| 2026-05-05 16:59 | 38.67456 | -9.17680 | 409 ft | 10 kts | 18° |
| 2026-05-05 16:59 | 38.67406 | -9.17768 | 510 ft | 10 kts | 327° |
| 2026-05-05 17:00 | 38.67505 | -9.17749 | 419 ft | 7 kts | 7° |
| 2026-05-05 17:00 | 38.67502 | -9.17736 | 357 ft | 0 kts | 5° |